sensor_id;sensor_type;location;lat;lon;timestamp;P1;durP1;ratioP1;P2;durP2;ratioP2
12725;SDS011;6427;49.754;6.106;2023-03-05T00:01:31;17.53;;;10.30;;
12725;SDS011;6427;49.754;6.106;2023-03-05T00:04:01;15.67;;;9.67;;
12725;SDS011;6427;49.754;6.106;2023-03-05T00:06:29;20.57;;;11.00;;
12725;SDS011;6427;49.754;6.106;2023-03-05T00:08:56;24.83;;;10.83;;
12725;SDS011;6427;49.754;6.106;2023-03-05T00:11:24;20.43;;;10.80;;
12725;SDS011;6427;49.754;6.106;2023-03-05T00:13:51;18.33;;;10.80;;
12725;SDS011;6427;49.754;6.106;2023-03-05T00:16:20;22.17;;;11.73;;
12725;SDS011;6427;49.754;6.106;2023-03-05T00:18:47;22.40;;;11.00;;
12725;SDS011;6427;49.754;6.106;2023-03-05T00:21:19;20.37;;;10.73;;
12725;SDS011;6427;49.754;6.106;2023-03-05T00:23:45;21.23;;;11.47;;
12725;SDS011;6427;49.754;6.106;2023-03-05T00:26:12;21.73;;;11.43;;
12725;SDS011;6427;49.754;6.106;2023-03-05T00:28:41;19.73;;;10.00;;
12725;SDS011;6427;49.754;6.106;2023-03-05T00:31:08;18.77;;;10.33;;
12725;SDS011;6427;49.754;6.106;2023-03-05T00:33:36;22.47;;;10.53;;
12725;SDS011;6427;49.754;6.106;2023-03-05T00:36:05;19.03;;;10.30;;
12725;SDS011;6427;49.754;6.106;2023-03-05T00:38:32;21.20;;;11.23;;
12725;SDS011;6427;49.754;6.106;2023-03-05T00:41:00;24.23;;;10.90;;
12725;SDS011;6427;49.754;6.106;2023-03-05T00:43:27;21.63;;;11.27;;
12725;SDS011;6427;49.754;6.106;2023-03-05T00:45:55;22.07;;;10.93;;
12725;SDS011;6427;49.754;6.106;2023-03-05T00:48:22;19.77;;;11.37;;
12725;SDS011;6427;49.754;6.106;2023-03-05T00:50:51;19.37;;;10.73;;
12725;SDS011;6427;49.754;6.106;2023-03-05T00:53:19;17.53;;;10.43;;
12725;SDS011;6427;49.754;6.106;2023-03-05T00:55:47;21.17;;;13.27;;
12725;SDS011;6427;49.754;6.106;2023-03-05T00:58:15;21.60;;;11.90;;
12725;SDS011;6427;49.754;6.106;2023-03-05T01:00:42;21.60;;;11.50;;
12725;SDS011;6427;49.754;6.106;2023-03-05T01:03:10;19.07;;;10.97;;
12725;SDS011;6427;49.754;6.106;2023-03-05T01:05:38;17.60;;;10.77;;
12725;SDS011;6427;49.754;6.106;2023-03-05T01:08:06;18.67;;;10.70;;
12725;SDS011;6427;49.754;6.106;2023-03-05T01:10:34;18.33;;;11.27;;
12725;SDS011;6427;49.754;6.106;2023-03-05T01:13:01;20.83;;;10.23;;
12725;SDS011;6427;49.754;6.106;2023-03-05T01:15:29;20.67;;;11.20;;
12725;SDS011;6427;49.754;6.106;2023-03-05T01:17:57;21.23;;;11.93;;
12725;SDS011;6427;49.754;6.106;2023-03-05T01:20:24;21.43;;;10.90;;
12725;SDS011;6427;49.754;6.106;2023-03-05T01:22:52;21.63;;;10.70;;
12725;SDS011;6427;49.754;6.106;2023-03-05T01:25:19;18.27;;;10.73;;
12725;SDS011;6427;49.754;6.106;2023-03-05T01:27:47;19.07;;;10.73;;
12725;SDS011;6427;49.754;6.106;2023-03-05T01:30:15;23.62;;;14.52;;
12725;SDS011;6427;49.754;6.106;2023-03-05T01:32:44;20.13;;;12.50;;
12725;SDS011;6427;49.754;6.106;2023-03-05T01:35:15;25.33;;;12.07;;
12725;SDS011;6427;49.754;6.106;2023-03-05T01:37:42;23.07;;;12.57;;
12725;SDS011;6427;49.754;6.106;2023-03-05T01:40:10;20.77;;;12.03;;
12725;SDS011;6427;49.754;6.106;2023-03-05T01:42:37;21.97;;;11.10;;
12725;SDS011;6427;49.754;6.106;2023-03-05T01:45:10;23.87;;;12.83;;
12725;SDS011;6427;49.754;6.106;2023-03-05T01:47:36;20.63;;;11.80;;
12725;SDS011;6427;49.754;6.106;2023-03-05T01:50:05;25.48;;;15.68;;
12725;SDS011;6427;49.754;6.106;2023-03-05T01:52:32;22.73;;;13.10;;
12725;SDS011;6427;49.754;6.106;2023-03-05T01:55:00;26.65;;;15.70;;
12725;SDS011;6427;49.754;6.106;2023-03-05T01:57:34;23.40;;;13.30;;
12725;SDS011;6427;49.754;6.106;2023-03-05T02:00:03;21.37;;;12.57;;
12725;SDS011;6427;49.754;6.106;2023-03-05T02:02:29;20.73;;;11.87;;
12725;SDS011;6427;49.754;6.106;2023-03-05T02:05:01;22.50;;;12.43;;
12725;SDS011;6427;49.754;6.106;2023-03-05T02:07:27;22.77;;;11.03;;
12725;SDS011;6427;49.754;6.106;2023-03-05T02:09:54;19.93;;;11.40;;
12725;SDS011;6427;49.754;6.106;2023-03-05T02:12:23;20.67;;;12.40;;
12725;SDS011;6427;49.754;6.106;2023-03-05T02:14:50;21.27;;;11.73;;
12725;SDS011;6427;49.754;6.106;2023-03-05T02:17:18;20.13;;;11.23;;
12725;SDS011;6427;49.754;6.106;2023-03-05T02:19:49;23.77;;;13.90;;
12725;SDS011;6427;49.754;6.106;2023-03-05T02:22:17;23.20;;;12.63;;
12725;SDS011;6427;49.754;6.106;2023-03-05T02:24:43;21.47;;;12.47;;
12725;SDS011;6427;49.754;6.106;2023-03-05T02:27:11;21.73;;;11.77;;
12725;SDS011;6427;49.754;6.106;2023-03-05T02:29:40;20.97;;;11.40;;
12725;SDS011;6427;49.754;6.106;2023-03-05T02:32:07;20.23;;;11.90;;
12725;SDS011;6427;49.754;6.106;2023-03-05T02:34:35;18.10;;;10.73;;
12725;SDS011;6427;49.754;6.106;2023-03-05T02:37:03;19.93;;;10.80;;
12725;SDS011;6427;49.754;6.106;2023-03-05T02:39:30;21.62;;;14.07;;
12725;SDS011;6427;49.754;6.106;2023-03-05T02:41:58;21.30;;;12.97;;
12725;SDS011;6427;49.754;6.106;2023-03-05T02:44:26;22.55;;;15.13;;
12725;SDS011;6427;49.754;6.106;2023-03-05T02:46:54;21.53;;;12.70;;
12725;SDS011;6427;49.754;6.106;2023-03-05T02:49:22;25.60;;;12.40;;
12725;SDS011;6427;49.754;6.106;2023-03-05T02:51:50;19.13;;;11.40;;
12725;SDS011;6427;49.754;6.106;2023-03-05T02:54:17;24.95;;;15.05;;
12725;SDS011;6427;49.754;6.106;2023-03-05T02:56:45;22.63;;;12.60;;
12725;SDS011;6427;49.754;6.106;2023-03-05T02:59:13;21.00;;;11.70;;
12725;SDS011;6427;49.754;6.106;2023-03-05T03:01:40;19.00;;;11.80;;
12725;SDS011;6427;49.754;6.106;2023-03-05T03:04:09;19.27;;;11.80;;
12725;SDS011;6427;49.754;6.106;2023-03-05T03:06:36;20.20;;;11.83;;
12725;SDS011;6427;49.754;6.106;2023-03-05T03:09:04;23.17;;;12.47;;
12725;SDS011;6427;49.754;6.106;2023-03-05T03:11:31;22.77;;;12.13;;
12725;SDS011;6427;49.754;6.106;2023-03-05T03:13:59;21.30;;;12.30;;
12725;SDS011;6427;49.754;6.106;2023-03-05T03:16:27;24.90;;;12.27;;
12725;SDS011;6427;49.754;6.106;2023-03-05T03:18:54;19.83;;;11.77;;
12725;SDS011;6427;49.754;6.106;2023-03-05T03:21:22;24.43;;;13.87;;
12725;SDS011;6427;49.754;6.106;2023-03-05T03:23:49;24.43;;;12.83;;
12725;SDS011;6427;49.754;6.106;2023-03-05T03:26:17;28.27;;;16.85;;
12725;SDS011;6427;49.754;6.106;2023-03-05T03:28:45;25.47;;;14.43;;
12725;SDS011;6427;49.754;6.106;2023-03-05T03:31:13;25.33;;;14.20;;
12725;SDS011;6427;49.754;6.106;2023-03-05T03:33:41;23.23;;;13.27;;
12725;SDS011;6427;49.754;6.106;2023-03-05T03:36:08;22.27;;;12.47;;
12725;SDS011;6427;49.754;6.106;2023-03-05T03:38:36;25.47;;;12.97;;
12725;SDS011;6427;49.754;6.106;2023-03-05T03:41:06;22.37;;;12.73;;
12725;SDS011;6427;49.754;6.106;2023-03-05T03:43:35;24.97;;;12.77;;
12725;SDS011;6427;49.754;6.106;2023-03-05T03:46:05;26.10;;;13.13;;
12725;SDS011;6427;49.754;6.106;2023-03-05T03:48:32;23.07;;;12.77;;
12725;SDS011;6427;49.754;6.106;2023-03-05T03:51:02;24.60;;;12.97;;
12725;SDS011;6427;49.754;6.106;2023-03-05T03:53:27;24.90;;;15.90;;
12725;SDS011;6427;49.754;6.106;2023-03-05T03:55:58;25.23;;;14.00;;
12725;SDS011;6427;49.754;6.106;2023-03-05T03:58:25;21.37;;;12.60;;
12725;SDS011;6427;49.754;6.106;2023-03-05T04:00:53;20.87;;;11.43;;
12725;SDS011;6427;49.754;6.106;2023-03-05T04:03:21;26.00;;;12.97;;
12725;SDS011;6427;49.754;6.106;2023-03-05T04:05:49;25.40;;;12.13;;
12725;SDS011;6427;49.754;6.106;2023-03-05T04:08:16;26.50;;;13.37;;
12725;SDS011;6427;49.754;6.106;2023-03-05T04:10:45;23.50;;;12.20;;
12725;SDS011;6427;49.754;6.106;2023-03-05T04:13:12;19.33;;;11.00;;
12725;SDS011;6427;49.754;6.106;2023-03-05T04:15:41;17.57;;;10.63;;
12725;SDS011;6427;49.754;6.106;2023-03-05T04:18:08;22.40;;;11.20;;
12725;SDS011;6427;49.754;6.106;2023-03-05T04:20:36;23.27;;;11.50;;
12725;SDS011;6427;49.754;6.106;2023-03-05T04:23:03;23.53;;;12.00;;
12725;SDS011;6427;49.754;6.106;2023-03-05T04:25:32;27.83;;;14.87;;
12725;SDS011;6427;49.754;6.106;2023-03-05T04:27:59;21.90;;;12.33;;
12725;SDS011;6427;49.754;6.106;2023-03-05T04:30:27;19.43;;;10.90;;
12725;SDS011;6427;49.754;6.106;2023-03-05T04:32:55;22.17;;;11.33;;
12725;SDS011;6427;49.754;6.106;2023-03-05T04:35:23;17.73;;;9.93;;
12725;SDS011;6427;49.754;6.106;2023-03-05T04:37:51;15.37;;;9.53;;
12725;SDS011;6427;49.754;6.106;2023-03-05T04:40:18;16.70;;;9.20;;
12725;SDS011;6427;49.754;6.106;2023-03-05T04:42:47;15.53;;;8.67;;
12725;SDS011;6427;49.754;6.106;2023-03-05T04:45:14;17.73;;;8.77;;
12725;SDS011;6427;49.754;6.106;2023-03-05T04:47:42;14.73;;;8.77;;
12725;SDS011;6427;49.754;6.106;2023-03-05T04:50:10;15.87;;;8.70;;
12725;SDS011;6427;49.754;6.106;2023-03-05T04:52:38;18.97;;;8.90;;
12725;SDS011;6427;49.754;6.106;2023-03-05T04:55:06;19.03;;;8.80;;
12725;SDS011;6427;49.754;6.106;2023-03-05T04:57:34;14.93;;;8.00;;
12725;SDS011;6427;49.754;6.106;2023-03-05T05:00:03;15.13;;;8.20;;
12725;SDS011;6427;49.754;6.106;2023-03-05T05:02:35;14.07;;;7.20;;
12725;SDS011;6427;49.754;6.106;2023-03-05T05:05:02;14.17;;;7.60;;
12725;SDS011;6427;49.754;6.106;2023-03-05T05:07:30;16.00;;;7.90;;
12725;SDS011;6427;49.754;6.106;2023-03-05T05:09:58;16.50;;;8.77;;
12725;SDS011;6427;49.754;6.106;2023-03-05T05:12:28;16.57;;;8.47;;
12725;SDS011;6427;49.754;6.106;2023-03-05T05:14:59;16.40;;;9.32;;
12725;SDS011;6427;49.754;6.106;2023-03-05T05:17:26;13.97;;;8.43;;
12725;SDS011;6427;49.754;6.106;2023-03-05T05:19:55;19.97;;;8.80;;
12725;SDS011;6427;49.754;6.106;2023-03-05T05:22:22;19.90;;;9.10;;
12725;SDS011;6427;49.754;6.106;2023-03-05T05:24:50;17.40;;;8.63;;
12725;SDS011;6427;49.754;6.106;2023-03-05T05:27:17;22.73;;;11.55;;
12725;SDS011;6427;49.754;6.106;2023-03-05T05:29:45;17.20;;;9.53;;
12725;SDS011;6427;49.754;6.106;2023-03-05T05:32:12;15.43;;;9.13;;
12725;SDS011;6427;49.754;6.106;2023-03-05T05:34:40;19.33;;;9.13;;
12725;SDS011;6427;49.754;6.106;2023-03-05T05:37:07;15.17;;;8.73;;
12725;SDS011;6427;49.754;6.106;2023-03-05T05:39:36;16.87;;;9.27;;
12725;SDS011;6427;49.754;6.106;2023-03-05T05:42:03;16.23;;;8.67;;
12725;SDS011;6427;49.754;6.106;2023-03-05T05:44:31;16.33;;;8.63;;
12725;SDS011;6427;49.754;6.106;2023-03-05T05:46:58;17.47;;;8.17;;
12725;SDS011;6427;49.754;6.106;2023-03-05T05:49:26;17.50;;;8.93;;
12725;SDS011;6427;49.754;6.106;2023-03-05T05:51:53;19.75;;;10.05;;
12725;SDS011;6427;49.754;6.106;2023-03-05T05:54:21;15.70;;;9.63;;
12725;SDS011;6427;49.754;6.106;2023-03-05T05:56:49;18.13;;;8.60;;
12725;SDS011;6427;49.754;6.106;2023-03-05T05:59:17;14.90;;;8.10;;
12725;SDS011;6427;49.754;6.106;2023-03-05T06:01:45;20.37;;;8.97;;
12725;SDS011;6427;49.754;6.106;2023-03-05T06:06:49;13.80;;;8.30;;
12725;SDS011;6427;49.754;6.106;2023-03-05T06:09:17;15.73;;;8.43;;
12725;SDS011;6427;49.754;6.106;2023-03-05T06:11:44;14.83;;;7.67;;
12725;SDS011;6427;49.754;6.106;2023-03-05T06:14:13;13.77;;;8.00;;
12725;SDS011;6427;49.754;6.106;2023-03-05T06:16:40;13.07;;;7.67;;
12725;SDS011;6427;49.754;6.106;2023-03-05T06:19:10;14.60;;;8.50;;
12725;SDS011;6427;49.754;6.106;2023-03-05T06:21:38;17.50;;;9.03;;
12725;SDS011;6427;49.754;6.106;2023-03-05T06:24:06;17.53;;;7.40;;
12725;SDS011;6427;49.754;6.106;2023-03-05T06:26:34;12.37;;;7.70;;
12725;SDS011;6427;49.754;6.106;2023-03-05T06:29:02;13.60;;;7.10;;
12725;SDS011;6427;49.754;6.106;2023-03-05T06:31:29;15.30;;;8.03;;
12725;SDS011;6427;49.754;6.106;2023-03-05T06:33:58;13.53;;;7.33;;
12725;SDS011;6427;49.754;6.106;2023-03-05T06:36:25;14.03;;;7.73;;
12725;SDS011;6427;49.754;6.106;2023-03-05T06:38:53;13.00;;;6.97;;
12725;SDS011;6427;49.754;6.106;2023-03-05T06:41:25;13.20;;;7.13;;
12725;SDS011;6427;49.754;6.106;2023-03-05T06:43:51;13.77;;;7.43;;
12725;SDS011;6427;49.754;6.106;2023-03-05T06:46:23;13.13;;;7.10;;
12725;SDS011;6427;49.754;6.106;2023-03-05T06:48:46;17.90;;;7.80;;
12725;SDS011;6427;49.754;6.106;2023-03-05T06:51:18;18.63;;;7.63;;
12725;SDS011;6427;49.754;6.106;2023-03-05T06:53:45;18.93;;;8.53;;
12725;SDS011;6427;49.754;6.106;2023-03-05T06:56:13;17.03;;;9.23;;
12725;SDS011;6427;49.754;6.106;2023-03-05T06:58:41;19.40;;;9.53;;
12725;SDS011;6427;49.754;6.106;2023-03-05T07:01:08;17.97;;;9.37;;
12725;SDS011;6427;49.754;6.106;2023-03-05T07:03:36;17.47;;;9.33;;
12725;SDS011;6427;49.754;6.106;2023-03-05T07:06:04;20.53;;;10.37;;
12725;SDS011;6427;49.754;6.106;2023-03-05T07:08:32;22.93;;;10.63;;
12725;SDS011;6427;49.754;6.106;2023-03-05T07:10:59;22.63;;;10.63;;
12725;SDS011;6427;49.754;6.106;2023-03-05T07:13:27;20.40;;;11.73;;
12725;SDS011;6427;49.754;6.106;2023-03-05T07:15:55;21.03;;;11.77;;
12725;SDS011;6427;49.754;6.106;2023-03-05T07:18:22;27.93;;;12.30;;
12725;SDS011;6427;49.754;6.106;2023-03-05T07:20:50;22.27;;;12.37;;
12725;SDS011;6427;49.754;6.106;2023-03-05T07:23:18;26.25;;;15.07;;
12725;SDS011;6427;49.754;6.106;2023-03-05T07:25:45;21.03;;;11.80;;
12725;SDS011;6427;49.754;6.106;2023-03-05T07:28:13;22.43;;;11.60;;
12725;SDS011;6427;49.754;6.106;2023-03-05T07:30:41;20.00;;;11.83;;
12725;SDS011;6427;49.754;6.106;2023-03-05T07:33:08;18.97;;;10.43;;
12725;SDS011;6427;49.754;6.106;2023-03-05T07:35:39;17.90;;;9.30;;
12725;SDS011;6427;49.754;6.106;2023-03-05T07:38:07;16.27;;;9.13;;
12725;SDS011;6427;49.754;6.106;2023-03-05T07:40:35;15.50;;;8.73;;
12725;SDS011;6427;49.754;6.106;2023-03-05T07:43:02;16.13;;;7.23;;
12725;SDS011;6427;49.754;6.106;2023-03-05T07:45:30;11.10;;;7.17;;
12725;SDS011;6427;49.754;6.106;2023-03-05T07:47:57;12.70;;;8.70;;
12725;SDS011;6427;49.754;6.106;2023-03-05T07:50:26;12.57;;;7.80;;
12725;SDS011;6427;49.754;6.106;2023-03-05T07:52:53;10.43;;;6.60;;
12725;SDS011;6427;49.754;6.106;2023-03-05T07:55:21;12.25;;;8.57;;
12725;SDS011;6427;49.754;6.106;2023-03-05T07:57:49;14.33;;;7.23;;
12725;SDS011;6427;49.754;6.106;2023-03-05T08:00:17;9.13;;;6.63;;
12725;SDS011;6427;49.754;6.106;2023-03-05T08:02:44;12.23;;;6.90;;
12725;SDS011;6427;49.754;6.106;2023-03-05T08:05:12;14.43;;;8.50;;
12725;SDS011;6427;49.754;6.106;2023-03-05T08:07:39;13.00;;;7.77;;
12725;SDS011;6427;49.754;6.106;2023-03-05T08:10:07;13.33;;;6.80;;
12725;SDS011;6427;49.754;6.106;2023-03-05T08:12:34;10.57;;;5.77;;
12725;SDS011;6427;49.754;6.106;2023-03-05T08:15:02;11.30;;;6.40;;
12725;SDS011;6427;49.754;6.106;2023-03-05T08:17:30;8.97;;;5.60;;
12725;SDS011;6427;49.754;6.106;2023-03-05T08:19:57;12.93;;;7.10;;
12725;SDS011;6427;49.754;6.106;2023-03-05T08:22:25;11.32;;;7.15;;
12725;SDS011;6427;49.754;6.106;2023-03-05T08:24:53;10.90;;;5.97;;
12725;SDS011;6427;49.754;6.106;2023-03-05T08:27:20;11.40;;;5.43;;
12725;SDS011;6427;49.754;6.106;2023-03-05T08:29:49;9.20;;;4.83;;
12725;SDS011;6427;49.754;6.106;2023-03-05T08:32:17;7.97;;;4.20;;
12725;SDS011;6427;49.754;6.106;2023-03-05T08:34:45;9.13;;;5.03;;
12725;SDS011;6427;49.754;6.106;2023-03-05T08:37:12;9.83;;;4.87;;
12725;SDS011;6427;49.754;6.106;2023-03-05T08:39:40;7.23;;;4.90;;
12725;SDS011;6427;49.754;6.106;2023-03-05T08:42:08;6.73;;;4.40;;
12725;SDS011;6427;49.754;6.106;2023-03-05T08:44:36;8.93;;;5.20;;
12725;SDS011;6427;49.754;6.106;2023-03-05T08:47:03;7.57;;;4.07;;
12725;SDS011;6427;49.754;6.106;2023-03-05T08:49:31;8.50;;;5.00;;
12725;SDS011;6427;49.754;6.106;2023-03-05T08:51:58;7.10;;;4.17;;
12725;SDS011;6427;49.754;6.106;2023-03-05T08:54:26;7.75;;;4.45;;
12725;SDS011;6427;49.754;6.106;2023-03-05T08:56:53;7.50;;;4.40;;
12725;SDS011;6427;49.754;6.106;2023-03-05T08:59:21;6.57;;;3.70;;
12725;SDS011;6427;49.754;6.106;2023-03-05T09:01:49;6.77;;;4.07;;
12725;SDS011;6427;49.754;6.106;2023-03-05T09:04:16;7.87;;;3.90;;
12725;SDS011;6427;49.754;6.106;2023-03-05T09:06:44;6.03;;;3.57;;
12725;SDS011;6427;49.754;6.106;2023-03-05T09:09:11;7.30;;;3.90;;
12725;SDS011;6427;49.754;6.106;2023-03-05T09:11:39;5.93;;;3.80;;
12725;SDS011;6427;49.754;6.106;2023-03-05T09:14:06;7.13;;;4.30;;
12725;SDS011;6427;49.754;6.106;2023-03-05T09:16:34;6.93;;;3.67;;
12725;SDS011;6427;49.754;6.106;2023-03-05T09:19:02;5.67;;;3.70;;
12725;SDS011;6427;49.754;6.106;2023-03-05T09:21:30;6.13;;;3.67;;
12725;SDS011;6427;49.754;6.106;2023-03-05T09:23:57;5.97;;;4.20;;
12725;SDS011;6427;49.754;6.106;2023-03-05T09:26:26;6.77;;;4.03;;
12725;SDS011;6427;49.754;6.106;2023-03-05T09:28:53;5.00;;;3.37;;
12725;SDS011;6427;49.754;6.106;2023-03-05T09:31:21;5.43;;;3.60;;
12725;SDS011;6427;49.754;6.106;2023-03-05T09:33:49;7.17;;;3.20;;
12725;SDS011;6427;49.754;6.106;2023-03-05T09:36:19;11.63;;;4.13;;
12725;SDS011;6427;49.754;6.106;2023-03-05T09:38:47;5.70;;;4.28;;
12725;SDS011;6427;49.754;6.106;2023-03-05T09:41:16;7.70;;;3.33;;
12725;SDS011;6427;49.754;6.106;2023-03-05T09:48:56;5.20;;;2.80;;
12725;SDS011;6427;49.754;6.106;2023-03-05T09:51:24;3.93;;;2.47;;
12725;SDS011;6427;49.754;6.106;2023-03-05T09:56:59;6.60;;;3.13;;
12725;SDS011;6427;49.754;6.106;2023-03-05T09:59:15;4.70;;;2.87;;
12725;SDS011;6427;49.754;6.106;2023-03-05T10:01:39;4.87;;;2.97;;
12725;SDS011;6427;49.754;6.106;2023-03-05T10:04:08;5.83;;;3.13;;
12725;SDS011;6427;49.754;6.106;2023-03-05T10:06:35;4.03;;;2.20;;
12725;SDS011;6427;49.754;6.106;2023-03-05T10:09:06;3.33;;;2.17;;
12725;SDS011;6427;49.754;6.106;2023-03-05T10:12:22;3.00;;;2.10;;
12725;SDS011;6427;49.754;6.106;2023-03-05T10:14:17;3.00;;;1.83;;
12725;SDS011;6427;49.754;6.106;2023-03-05T10:22:22;3.50;;;1.73;;
12725;SDS011;6427;49.754;6.106;2023-03-05T10:28:13;3.03;;;1.63;;
12725;SDS011;6427;49.754;6.106;2023-03-05T10:30:20;1.73;;;1.30;;
12725;SDS011;6427;49.754;6.106;2023-03-05T10:38:43;4.43;;;2.10;;
12725;SDS011;6427;49.754;6.106;2023-03-05T10:41:19;1.20;;;0.40;;
12725;SDS011;6427;49.754;6.106;2023-03-05T10:46:35;0.83;;;0.13;;
12725;SDS011;6427;49.754;6.106;2023-03-05T10:51:42;1.30;;;0.53;;
12725;SDS011;6427;49.754;6.106;2023-03-05T10:54:24;2.20;;;0.30;;
12725;SDS011;6427;49.754;6.106;2023-03-05T10:57:03;2.53;;;1.10;;
12725;SDS011;6427;49.754;6.106;2023-03-05T11:00:25;1.77;;;0.73;;
12725;SDS011;6427;49.754;6.106;2023-03-05T11:02:18;1.53;;;0.40;;
12725;SDS011;6427;49.754;6.106;2023-03-05T11:04:45;1.70;;;0.50;;
12725;SDS011;6427;49.754;6.106;2023-03-05T11:10:04;0.73;;;0.30;;
12725;SDS011;6427;49.754;6.106;2023-03-05T11:17:30;3.47;;;0.90;;
12725;SDS011;6427;49.754;6.106;2023-03-05T11:19:57;1.65;;;1.10;;
12725;SDS011;6427;49.754;6.106;2023-03-05T11:22:24;2.83;;;1.23;;
12725;SDS011;6427;49.754;6.106;2023-03-05T11:25:14;2.07;;;0.80;;
12725;SDS011;6427;49.754;6.106;2023-03-05T11:27:48;3.30;;;1.10;;
12725;SDS011;6427;49.754;6.106;2023-03-05T11:30:20;2.33;;;1.00;;
12725;SDS011;6427;49.754;6.106;2023-03-05T11:35:42;2.60;;;1.20;;
12725;SDS011;6427;49.754;6.106;2023-03-05T11:38:20;4.03;;;1.90;;
12725;SDS011;6427;49.754;6.106;2023-03-05T11:40:45;2.60;;;2.00;;
12725;SDS011;6427;49.754;6.106;2023-03-05T11:43:17;1.73;;;1.40;;
12725;SDS011;6427;49.754;6.106;2023-03-05T11:45:44;2.43;;;1.13;;
12725;SDS011;6427;49.754;6.106;2023-03-05T11:48:14;1.07;;;0.93;;
12725;SDS011;6427;49.754;6.106;2023-03-05T11:50:43;0.63;;;0.63;;
12725;SDS011;6427;49.754;6.106;2023-03-05T11:53:14;1.57;;;0.80;;
12725;SDS011;6427;49.754;6.106;2023-03-05T12:01:21;1.80;;;0.75;;
12725;SDS011;6427;49.754;6.106;2023-03-05T12:03:48;2.80;;;0.83;;
12725;SDS011;6427;49.754;6.106;2023-03-05T12:06:17;3.30;;;1.27;;
12725;SDS011;6427;49.754;6.106;2023-03-05T12:08:59;1.47;;;0.70;;
12725;SDS011;6427;49.754;6.106;2023-03-05T12:11:31;1.43;;;0.87;;
12725;SDS011;6427;49.754;6.106;2023-03-05T12:19:24;2.27;;;1.17;;
12725;SDS011;6427;49.754;6.106;2023-03-05T12:21:51;1.33;;;0.90;;
12725;SDS011;6427;49.754;6.106;2023-03-05T12:31:59;1.13;;;0.60;;
12725;SDS011;6427;49.754;6.106;2023-03-05T12:37:11;0.87;;;0.70;;
12725;SDS011;6427;49.754;6.106;2023-03-05T12:39:45;2.93;;;1.00;;
12725;SDS011;6427;49.754;6.106;2023-03-05T12:47:41;2.37;;;1.20;;
12725;SDS011;6427;49.754;6.106;2023-03-05T12:52:57;3.20;;;1.47;;
12725;SDS011;6427;49.754;6.106;2023-03-05T12:55:27;1.23;;;1.07;;
12725;SDS011;6427;49.754;6.106;2023-03-05T12:58:08;1.13;;;0.83;;
12725;SDS011;6427;49.754;6.106;2023-03-05T13:00:37;1.17;;;0.80;;
12725;SDS011;6427;49.754;6.106;2023-03-05T13:03:07;2.17;;;1.27;;
12725;SDS011;6427;49.754;6.106;2023-03-05T13:05:33;2.12;;;1.10;;
12725;SDS011;6427;49.754;6.106;2023-03-05T13:10:52;1.70;;;1.30;;
12725;SDS011;6427;49.754;6.106;2023-03-05T13:13:19;4.27;;;2.03;;
12725;SDS011;6427;49.754;6.106;2023-03-05T13:15:47;1.73;;;1.50;;
12725;SDS011;6427;49.754;6.106;2023-03-05T13:18:19;2.53;;;1.90;;
12725;SDS011;6427;49.754;6.106;2023-03-05T13:20:42;2.47;;;1.70;;
12725;SDS011;6427;49.754;6.106;2023-03-05T13:25:44;2.40;;;1.60;;
12725;SDS011;6427;49.754;6.106;2023-03-05T13:28:13;2.30;;;1.90;;
12725;SDS011;6427;49.754;6.106;2023-03-05T13:30:43;2.50;;;1.70;;
12725;SDS011;6427;49.754;6.106;2023-03-05T13:33:14;2.83;;;1.70;;
12725;SDS011;6427;49.754;6.106;2023-03-05T13:35:42;3.67;;;1.70;;
12725;SDS011;6427;49.754;6.106;2023-03-05T13:38:14;2.00;;;1.20;;
12725;SDS011;6427;49.754;6.106;2023-03-05T13:40:35;1.70;;;1.30;;
12725;SDS011;6427;49.754;6.106;2023-03-05T13:43:10;2.50;;;1.80;;
12725;SDS011;6427;49.754;6.106;2023-03-05T13:45:37;2.53;;;1.80;;
12725;SDS011;6427;49.754;6.106;2023-03-05T13:48:05;3.43;;;1.50;;
12725;SDS011;6427;49.754;6.106;2023-03-05T13:50:35;1.53;;;1.43;;
12725;SDS011;6427;49.754;6.106;2023-03-05T13:55:45;3.87;;;2.33;;
12725;SDS011;6427;49.754;6.106;2023-03-05T14:01:14;3.13;;;1.80;;
12725;SDS011;6427;49.754;6.106;2023-03-05T14:03:41;3.12;;;2.12;;
12725;SDS011;6427;49.754;6.106;2023-03-05T14:06:09;6.03;;;2.90;;
12725;SDS011;6427;49.754;6.106;2023-03-05T14:08:36;4.63;;;2.20;;
12725;SDS011;6427;49.754;6.106;2023-03-05T14:11:14;4.10;;;1.77;;
12725;SDS011;6427;49.754;6.106;2023-03-05T14:13:40;4.60;;;2.33;;
12725;SDS011;6427;49.754;6.106;2023-03-05T14:16:12;3.37;;;2.50;;
12725;SDS011;6427;49.754;6.106;2023-03-05T14:19:02;4.97;;;2.50;;
12725;SDS011;6427;49.754;6.106;2023-03-05T14:21:22;3.07;;;2.03;;
12725;SDS011;6427;49.754;6.106;2023-03-05T14:23:50;3.67;;;2.30;;
12725;SDS011;6427;49.754;6.106;2023-03-05T14:26:19;3.47;;;2.37;;
12725;SDS011;6427;49.754;6.106;2023-03-05T14:28:58;3.70;;;2.23;;
12725;SDS011;6427;49.754;6.106;2023-03-05T14:31:26;3.45;;;2.60;;
12725;SDS011;6427;49.754;6.106;2023-03-05T14:33:53;6.50;;;2.63;;
12725;SDS011;6427;49.754;6.106;2023-03-05T14:36:24;4.70;;;2.70;;
12725;SDS011;6427;49.754;6.106;2023-03-05T14:38:51;4.43;;;2.80;;
12725;SDS011;6427;49.754;6.106;2023-03-05T14:43:58;4.60;;;2.70;;
12725;SDS011;6427;49.754;6.106;2023-03-05T14:46:25;5.90;;;2.70;;
12725;SDS011;6427;49.754;6.106;2023-03-05T14:48:54;3.90;;;2.53;;
12725;SDS011;6427;49.754;6.106;2023-03-05T14:51:21;6.07;;;2.77;;
12725;SDS011;6427;49.754;6.106;2023-03-05T14:53:49;3.87;;;2.53;;
12725;SDS011;6427;49.754;6.106;2023-03-05T14:56:23;2.90;;;2.60;;
12725;SDS011;6427;49.754;6.106;2023-03-05T14:58:50;3.60;;;2.50;;
12725;SDS011;6427;49.754;6.106;2023-03-05T15:01:17;4.12;;;3.50;;
12725;SDS011;6427;49.754;6.106;2023-03-05T15:03:45;4.00;;;3.00;;
12725;SDS011;6427;49.754;6.106;2023-03-05T15:06:17;3.40;;;2.87;;
12725;SDS011;6427;49.754;6.106;2023-03-05T15:08:41;3.77;;;2.70;;
12725;SDS011;6427;49.754;6.106;2023-03-05T15:11:08;4.53;;;2.90;;
12725;SDS011;6427;49.754;6.106;2023-03-05T15:13:36;4.17;;;2.77;;
12725;SDS011;6427;49.754;6.106;2023-03-05T15:16:04;4.90;;;3.50;;
12725;SDS011;6427;49.754;6.106;2023-03-05T15:18:31;5.43;;;3.00;;
12725;SDS011;6427;49.754;6.106;2023-03-05T15:20:58;5.32;;;3.47;;
12725;SDS011;6427;49.754;6.106;2023-03-05T15:23:26;4.85;;;3.37;;
12725;SDS011;6427;49.754;6.106;2023-03-05T15:25:54;5.60;;;3.65;;
12725;SDS011;6427;49.754;6.106;2023-03-05T15:28:21;5.33;;;3.37;;
12725;SDS011;6427;49.754;6.106;2023-03-05T15:30:49;4.40;;;2.70;;
12725;SDS011;6427;49.754;6.106;2023-03-05T15:33:17;3.43;;;2.67;;
12725;SDS011;6427;49.754;6.106;2023-03-05T15:35:44;8.27;;;4.60;;
12725;SDS011;6427;49.754;6.106;2023-03-05T15:38:12;4.30;;;3.07;;
12725;SDS011;6427;49.754;6.106;2023-03-05T15:40:40;5.67;;;2.63;;
12725;SDS011;6427;49.754;6.106;2023-03-05T15:43:08;3.47;;;2.95;;
12725;SDS011;6427;49.754;6.106;2023-03-05T15:45:36;3.03;;;2.20;;
12725;SDS011;6427;49.754;6.106;2023-03-05T15:48:03;3.83;;;2.50;;
12725;SDS011;6427;49.754;6.106;2023-03-05T15:50:31;3.53;;;2.70;;
12725;SDS011;6427;49.754;6.106;2023-03-05T15:52:58;4.23;;;2.43;;
12725;SDS011;6427;49.754;6.106;2023-03-05T15:55:27;4.03;;;2.30;;
12725;SDS011;6427;49.754;6.106;2023-03-05T15:57:54;4.37;;;2.90;;
12725;SDS011;6427;49.754;6.106;2023-03-05T16:00:23;4.07;;;2.53;;
12725;SDS011;6427;49.754;6.106;2023-03-05T16:02:50;4.43;;;3.13;;
12725;SDS011;6427;49.754;6.106;2023-03-05T16:05:18;5.30;;;3.57;;
12725;SDS011;6427;49.754;6.106;2023-03-05T16:07:45;7.05;;;4.43;;
12725;SDS011;6427;49.754;6.106;2023-03-05T16:10:14;5.70;;;3.70;;
12725;SDS011;6427;49.754;6.106;2023-03-05T16:12:40;6.10;;;4.30;;
12725;SDS011;6427;49.754;6.106;2023-03-05T16:15:09;5.30;;;3.50;;
12725;SDS011;6427;49.754;6.106;2023-03-05T16:17:37;4.27;;;3.20;;
12725;SDS011;6427;49.754;6.106;2023-03-05T16:20:04;3.60;;;2.77;;